Green Bank, West Virginia
Current Conditions -  °F | °C
As of 11:51 PM on Friday 24 Oct 2014 (Local Time) from KEKN Reporting Station
Clear Clear  
Wind Chill: 34°   Ceiling: Unl
Heat Index: 34°   Visibility: 9mi
Dew Point: 34°   Wind: 0mph
Humidity: 100%   Direction: NA
Pressure: 30.08"   Gusts: NA
Location:  38.42°N, 79.83°W
Report Text: KEKN 250351Z AUTO 00000KT 9SM CLR 01/01 A3008 RMK AO2 SLP199 T00110011 TSNO
Loading
Personal Weather Stations






























Interactive Weather Map
Tropical Storm Tracking
New forecast layout! Learn more

10-Day Weather Forecast

Advertisements
Track Severe Weather on mobile